Time;durP1;ratioP1;P1;durP2;ratioP2;P2;SDS_P1;SDS_P2;PMS_P1;PMS_P2;Temp;Humidity;BMP_temperature;BMP_pressure;BME280_temperature;BME280_humidity;BME280_pressure;Samples;Min_cycle;Max_cycle;Signal;HPM_P1;HPM_P2
2022/04/15 00:00:18;;;;;;;10.90;7.57;;;12.90;99.90;;;;;;4962957;28;20203;-77
2022/04/15 00:02:45;;;;;;;10.55;8.13;;;12.90;99.90;;;;;;4940463;29;20206;-78
2022/04/15 00:05:34;;;;;;;13.50;7.63;;;12.80;99.90;;;;;;4960297;28;20213;-78
2022/04/15 00:08:03;;;;;;;10.20;7.82;;;12.70;99.90;;;;;;4950473;28;20218;-79
2022/04/15 00:10:31;;;;;;;10.98;8.05;;;12.60;99.90;;;;;;4943636;28;20210;-79
2022/04/15 00:13:33;;;;;;;10.95;8.05;;;12.50;99.90;;;;;;4938267;29;20203;-79
2022/04/15 00:16:02;;;;;;;9.27;7.68;;;12.20;99.90;;;;;;4953495;29;20202;-78
2022/04/15 00:18:30;;;;;;;8.93;7.38;;;12.40;99.90;;;;;;4959199;28;20240;-78
2022/04/15 00:20:57;;;;;;;9.65;7.38;;;12.40;99.90;;;;;;4964009;28;20751;-79
2022/04/15 00:23:26;;;;;;;10.75;7.78;;;12.30;99.90;;;;;;4936204;29;20218;-79
2022/04/15 00:25:54;;;;;;;9.50;7.05;;;12.20;99.90;;;;;;4936166;29;20205;-79
2022/04/15 00:28:22;;;;;;;11.48;7.55;;;11.90;99.90;;;;;;4937600;29;20218;-79
2022/04/15 00:30:50;;;;;;;11.15;7.22;;;12.00;99.90;;;;;;4936677;29;20669;-79
2022/04/15 00:33:17;;;;;;;8.50;7.28;;;12.00;99.90;;;;;;4952302;29;20676;-79
2022/04/15 00:36:27;;;;;;;10.43;7.85;;;12.10;99.90;;;;;;4953078;28;20213;-79
2022/04/15 00:38:56;;;;;;;7.45;6.72;;;11.90;99.90;;;;;;4936314;29;20323;-79
2022/04/15 00:41:23;;;;;;;11.02;7.50;;;12.10;99.90;;;;;;4919768;29;20222;-79
2022/04/15 00:43:54;;;;;;;10.38;7.60;;;12.10;99.90;;;;;;4935006;29;20217;-79
2022/04/15 00:46:22;;;;;;;8.75;7.43;;;12.00;99.90;;;;;;4959836;28;20221;-79
2022/04/15 00:48:50;;;;;;;9.43;7.57;;;12.00;99.90;;;;;;4937927;28;20226;-79
2022/04/15 00:51:17;;;;;;;10.75;8.32;;;11.80;99.90;;;;;;4953538;28;20195;-79
2022/04/15 00:53:46;;;;;;;8.68;7.38;;;11.60;99.90;;;;;;4963933;28;20213;-78
2022/04/15 00:56:16;;;;;;;9.45;7.20;;;11.60;99.90;;;;;;4951877;28;20202;-79
2022/04/15 00:58:46;;;;;;;10.43;7.60;;;11.70;99.90;;;;;;4951608;28;20261;-79
2022/04/15 01:01:14;;;;;;;10.85;7.85;;;11.50;99.90;;;;;;4951755;28;20233;-79
2022/04/15 01:03:41;;;;;;;10.63;8.10;;;11.40;99.90;;;;;;4936010;29;20199;-79
2022/04/15 01:06:10;;;;;;;12.50;8.00;;;11.40;99.90;;;;;;4951983;28;20205;-78
2022/04/15 01:08:40;;;;;;;8.25;7.20;;;11.40;99.90;;;;;;4934901;29;20225;-78
2022/04/15 01:11:11;;;;;;;7.95;7.15;;;11.50;99.90;;;;;;4953304;28;20225;-79
2022/04/15 01:13:40;;;;;;;10.17;7.77;;;11.40;99.90;;;;;;4930107;29;20218;-79
2022/04/15 01:16:09;;;;;;;8.82;7.18;;;11.50;99.90;;;;;;4951609;29;20205;-79
2022/04/15 01:18:36;;;;;;;9.95;7.45;;;11.50;99.90;;;;;;4949791;28;20226;-79
2022/04/15 01:21:04;;;;;;;8.25;6.95;;;11.50;99.90;;;;;;4941046;29;20218;-79
2022/04/15 01:23:33;;;;;;;9.30;6.35;;;11.60;99.90;;;;;;4951182;29;20198;-78
2022/04/15 01:26:00;;;;;;;9.27;7.13;;;11.60;99.90;;;;;;4938695;29;20198;-79
2022/04/15 01:28:27;;;;;;;12.55;7.45;;;11.60;99.90;;;;;;4952380;28;20225;-79
2022/04/15 01:30:55;;;;;;;8.85;7.95;;;11.70;99.90;;;;;;4949677;28;20198;-79
2022/04/15 01:33:22;;;;;;;10.68;7.55;;;11.70;99.90;;;;;;4961874;28;20193;-79
2022/04/15 01:35:50;;;;;;;10.68;6.93;;;11.50;99.90;;;;;;4947192;28;20271;-78
2022/04/15 01:38:18;;;;;;;10.90;7.18;;;11.30;99.90;;;;;;4946382;28;20237;-79
2022/04/15 01:40:47;;;;;;;9.82;7.30;;;11.10;99.90;;;;;;4934412;29;20226;-79
2022/04/15 01:43:15;;;;;;;9.40;7.65;;;11.20;99.90;;;;;;4955010;28;20206;-79
2022/04/15 01:45:42;;;;;;;8.80;7.60;;;11.20;99.90;;;;;;4937119;29;20199;-79
2022/04/15 01:48:09;;;;;;;11.27;7.73;;;11.10;99.90;;;;;;4940345;29;20223;-78
2022/04/15 01:50:37;;;;;;;10.23;7.20;;;11.10;99.90;;;;;;4958090;28;20201;-79
2022/04/15 01:53:04;;;;;;;8.40;7.23;;;11.20;99.90;;;;;;4934958;29;20213;-78
2022/04/15 01:55:32;;;;;;;10.75;7.80;;;11.30;99.90;;;;;;4962458;28;20672;-78
2022/04/15 01:58:00;;;;;;;10.73;7.70;;;11.30;99.90;;;;;;4951359;28;20210;-79
2022/04/15 02:00:28;;;;;;;8.80;7.43;;;11.40;99.90;;;;;;4933699;28;20234;-79
2022/04/15 02:02:56;;;;;;;8.17;7.37;;;11.30;99.90;;;;;;4957124;28;20221;-79
2022/04/15 02:05:23;;;;;;;10.63;8.07;;;11.30;99.90;;;;;;4944789;28;20210;-78
2022/04/15 02:07:51;;;;;;;11.23;8.03;;;11.40;99.90;;;;;;4956573;28;20213;-78
2022/04/15 02:10:18;;;;;;;8.90;7.97;;;11.30;99.90;;;;;;4944924;29;20202;-79
2022/04/15 02:12:45;;;;;;;10.95;8.13;;;11.10;99.90;;;;;;4950916;28;20198;-79
2022/04/15 02:15:14;;;;;;;10.13;8.30;;;10.80;99.90;;;;;;4953887;28;20206;-79
2022/04/15 02:17:41;;;;;;;8.77;7.90;;;10.80;99.90;;;;;;4957385;28;20204;-78
2022/04/15 02:20:11;;;;;;;11.40;9.30;;;10.80;99.90;;;;;;4926837;29;20231;-78
2022/04/15 02:22:39;;;;;;;10.90;9.07;;;10.70;99.90;;;;;;4950994;28;20253;-79
2022/04/15 02:25:07;;;;;;;13.33;8.90;;;10.70;99.90;;;;;;4938086;29;20213;-79
2022/04/15 02:27:35;;;;;;;13.73;10.13;;;10.80;99.90;;;;;;4952688;28;20669;-78
2022/04/15 02:30:02;;;;;;;13.33;9.13;;;11.00;99.90;;;;;;4932907;29;20222;-78
2022/04/15 02:32:31;;;;;;;10.30;9.20;;;10.70;99.90;;;;;;4950345;28;20198;-78
2022/04/15 02:34:59;;;;;;;10.87;8.20;;;10.50;99.90;;;;;;4965310;28;20205;-79
2022/04/15 02:37:26;;;;;;;11.73;9.10;;;10.50;99.90;;;;;;4938363;29;20190;-79
2022/04/15 02:39:55;;;;;;;11.70;9.07;;;10.40;99.90;;;;;;4937345;29;20579;-79
2022/04/15 02:42:22;;;;;;;11.53;8.50;;;10.40;99.90;;;;;;4965827;28;20225;-78
2022/04/15 02:44:52;;;;;;;10.73;8.37;;;10.50;99.90;;;;;;4974409;28;20204;-77
2022/04/15 02:47:20;;;;;;;9.83;8.83;;;10.40;99.90;;;;;;4963958;28;20205;-77
2022/04/15 02:49:48;;;;;;;9.50;7.93;;;10.60;99.90;;;;;;4976850;28;20225;-78
2022/04/15 02:52:16;;;;;;;13.43;9.27;;;10.60;99.90;;;;;;4972840;28;20202;-76
2022/04/15 02:54:43;;;;;;;12.30;9.30;;;10.60;99.90;;;;;;4968028;28;20202;-78
2022/04/15 02:57:12;;;;;;;12.40;9.40;;;10.70;99.90;;;;;;4956223;28;20225;-78
2022/04/15 02:59:39;;;;;;;10.83;7.90;;;10.70;99.90;;;;;;4959601;28;20218;-78
2022/04/15 03:02:08;;;;;;;10.30;9.00;;;10.60;99.90;;;;;;4962925;28;20253;-78
2022/04/15 03:04:35;;;;;;;11.17;8.13;;;10.50;99.90;;;;;;4961791;28;20550;-79
2022/04/15 03:07:04;;;;;;;11.30;8.13;;;10.50;99.90;;;;;;4967803;28;20205;-76
2022/04/15 03:09:32;;;;;;;9.00;8.10;;;10.60;99.90;;;;;;4953721;28;20225;-78
2022/04/15 03:11:59;;;;;;;10.50;8.73;;;10.50;99.90;;;;;;4955270;28;20210;-79
2022/04/15 03:14:26;;;;;;;12.00;9.33;;;10.60;99.90;;;;;;4955232;28;20744;-78
2022/04/15 03:16:54;;;;;;;11.70;9.73;;;10.60;99.90;;;;;;4955899;28;20217;-79
2022/04/15 03:19:21;;;;;;;13.63;10.20;;;10.60;99.90;;;;;;4962778;28;20229;-78
2022/04/15 03:21:49;;;;;;;13.60;9.83;;;10.50;99.90;;;;;;4948437;29;20710;-78
2022/04/15 03:24:18;;;;;;;11.87;10.03;;;10.60;99.90;;;;;;4964351;28;20576;-79
2022/04/15 03:26:45;;;;;;;12.03;10.13;;;10.60;99.90;;;;;;4959602;28;20211;-78
2022/04/15 03:29:12;;;;;;;12.00;9.27;;;10.40;99.90;;;;;;4949756;28;20230;-79
2022/04/15 03:31:40;;;;;;;10.57;9.23;;;10.20;99.90;;;;;;4957482;28;20202;-78
2022/04/15 03:34:07;;;;;;;10.90;9.33;;;10.30;99.90;;;;;;4963522;28;20205;-78
2022/04/15 03:36:35;;;;;;;11.63;8.83;;;10.30;99.90;;;;;;4952116;29;20209;-79
2022/04/15 03:39:02;;;;;;;10.60;8.37;;;10.30;99.90;;;;;;4969125;28;20310;-79
2022/04/15 03:41:31;;;;;;;9.40;7.60;;;10.30;99.90;;;;;;4962167;28;20225;-78
2022/04/15 03:43:59;;;;;;;9.80;7.90;;;10.40;99.90;;;;;;4948977;29;20201;-78
2022/04/15 03:46:27;;;;;;;11.30;8.60;;;10.50;99.90;;;;;;4954108;28;20201;-79
2022/04/15 03:48:54;;;;;;;12.47;8.93;;;10.40;99.90;;;;;;4962473;28;20226;-78
2022/04/15 03:51:22;;;;;;;9.13;7.80;;;10.20;99.90;;;;;;4946353;29;20205;-79
2022/04/15 03:53:49;;;;;;;8.90;8.00;;;10.20;99.90;;;;;;4939506;29;20546;-78
2022/04/15 03:56:16;;;;;;;9.10;7.87;;;10.30;99.90;;;;;;4935686;29;20203;-78
2022/04/15 03:58:45;;;;;;;8.23;7.33;;;10.30;99.90;;;;;;4948506;28;20222;-78
2022/04/15 04:01:20;;;;;;;8.93;8.03;;;10.30;99.90;;;;;;4962685;28;20213;-79
2022/04/15 04:03:47;;;;;;;9.67;8.23;;;10.30;99.90;;;;;;4953209;28;20213;-76
2022/04/15 04:06:14;;;;;;;9.20;8.00;;;10.30;99.90;;;;;;4953963;28;20209;-78
2022/04/15 04:08:49;;;;;;;10.67;8.30;;;10.20;99.90;;;;;;4953381;28;20226;-78
2022/04/15 04:11:16;;;;;;;11.70;9.10;;;10.40;99.90;;;;;;4954618;28;20564;-77
2022/04/15 04:13:45;;;;;;;9.17;8.27;;;10.40;99.90;;;;;;4964225;28;20200;-77
2022/04/15 04:16:13;;;;;;;9.57;8.57;;;10.40;99.90;;;;;;4943450;28;20198;-78
2022/04/15 04:18:41;;;;;;;10.27;9.20;;;10.50;99.90;;;;;;4948626;28;20222;-78
2022/04/15 04:21:08;;;;;;;10.40;8.83;;;10.40;99.90;;;;;;4937180;29;20209;-76
2022/04/15 04:23:37;;;;;;;10.27;9.13;;;10.30;99.90;;;;;;4939140;29;20226;-77
2022/04/15 04:26:05;;;;;;;11.17;9.47;;;10.30;99.90;;;;;;4949579;29;20240;-76
2022/04/15 04:28:33;;;;;;;10.37;8.70;;;10.30;99.90;;;;;;4943913;28;20226;-76
2022/04/15 04:31:02;;;;;;;11.37;10.20;;;10.40;99.90;;;;;;4953738;28;20210;-76
2022/04/15 04:33:29;;;;;;;11.47;9.50;;;10.50;99.90;;;;;;4955415;28;20205;-76
2022/04/15 04:35:56;;;;;;;12.00;9.93;;;10.60;99.90;;;;;;4956904;28;20209;-76
2022/04/15 04:38:24;;;;;;;12.13;9.73;;;10.70;99.90;;;;;;4947266;28;20582;-76
2022/04/15 04:40:52;;;;;;;12.50;9.70;;;11.00;99.90;;;;;;4962387;28;20202;-76
2022/04/15 04:43:19;;;;;;;14.43;10.43;;;10.90;99.90;;;;;;4963421;28;20226;-76
2022/04/15 04:45:47;;;;;;;13.30;9.90;;;10.80;99.90;;;;;;4938822;29;20206;-76
2022/04/15 04:48:15;;;;;;;11.87;9.60;;;11.00;99.90;;;;;;4955448;28;20229;-76
2022/04/15 04:50:45;;;;;;;10.40;9.30;;;11.20;99.90;;;;;;4962037;28;20237;-76
2022/04/15 04:53:13;;;;;;;11.27;9.30;;;11.40;99.90;;;;;;4949891;29;20194;-76
2022/04/15 04:55:40;;;;;;;12.33;10.33;;;11.40;99.90;;;;;;4952989;28;20198;-77
2022/04/15 04:58:08;;;;;;;13.50;10.30;;;11.40;99.90;;;;;;4950373;28;20233;-76
2022/04/15 05:00:35;;;;;;;11.77;10.07;;;11.40;99.90;;;;;;4945006;29;20704;-76
2022/04/15 05:03:03;;;;;;;13.23;9.83;;;11.50;99.90;;;;;;4953273;28;20230;-76
2022/04/15 05:05:32;;;;;;;11.70;10.40;;;11.50;99.90;;;;;;4939926;29;20688;-76
2022/04/15 05:07:59;;;;;;;11.70;10.57;;;11.50;99.90;;;;;;4952331;28;20209;-76
2022/04/15 05:10:26;;;;;;;12.93;11.27;;;11.60;99.90;;;;;;4946253;28;20672;-77
2022/04/15 05:12:54;;;;;;;13.53;10.77;;;11.40;99.90;;;;;;4947841;28;20206;-76
2022/04/15 05:15:21;;;;;;;14.30;11.30;;;11.30;99.90;;;;;;4954245;28;20217;-77
2022/04/15 05:17:48;;;;;;;12.63;11.10;;;11.20;99.90;;;;;;4946815;28;20210;-76
2022/04/15 05:20:16;;;;;;;15.37;10.73;;;10.90;99.90;;;;;;4961499;28;20197;-77
2022/04/15 05:22:45;;;;;;;16.57;12.23;;;10.70;99.90;;;;;;4954052;28;20225;-77
2022/04/15 05:25:13;;;;;;;15.10;11.80;;;10.70;99.90;;;;;;4956046;28;20199;-77
2022/04/15 05:27:40;;;;;;;13.93;11.53;;;10.80;99.90;;;;;;4951858;28;20221;-78
2022/04/15 05:30:08;;;;;;;14.20;11.67;;;10.80;99.90;;;;;;4951589;28;20236;-78
2022/04/15 05:32:36;;;;;;;14.77;12.53;;;10.90;99.90;;;;;;4956369;28;20224;-78
2022/04/15 05:35:04;;;;;;;13.00;11.27;;;10.90;99.90;;;;;;4960975;28;20208;-78
2022/04/15 05:37:31;;;;;;;13.63;11.13;;;10.90;99.90;;;;;;4957656;28;20202;-78
2022/04/15 05:40:00;;;;;;;12.43;11.00;;;10.90;99.90;;;;;;4944206;28;20246;-78
2022/04/15 05:42:28;;;;;;;11.73;10.17;;;10.90;99.90;;;;;;4952895;28;20218;-78
2022/04/15 05:44:55;;;;;;;13.10;10.07;;;10.90;99.90;;;;;;4952386;28;20206;-78
2022/04/15 05:47:23;;;;;;;13.50;10.97;;;11.10;99.90;;;;;;4950121;29;20210;-78
2022/04/15 05:49:50;;;;;;;13.63;11.50;;;11.10;99.90;;;;;;4951781;28;20371;-78
2022/04/15 05:52:18;;;;;;;12.77;10.37;;;11.10;99.90;;;;;;4937373;29;20190;-78
2022/04/15 05:54:45;;;;;;;12.67;10.47;;;11.10;99.90;;;;;;4952160;29;20194;-78
2022/04/15 05:57:14;;;;;;;13.07;11.17;;;11.20;99.90;;;;;;4957137;28;20564;-78
2022/04/15 05:59:42;;;;;;;13.73;12.07;;;11.20;99.90;;;;;;4943344;28;20226;-78
2022/04/15 06:02:09;;;;;;;12.27;10.37;;;11.20;99.90;;;;;;4952438;28;20218;-78
2022/04/15 06:04:37;;;;;;;13.03;10.57;;;11.20;99.90;;;;;;4937345;29;20553;-78
2022/04/15 06:07:04;;;;;;;11.53;9.60;;;11.00;99.90;;;;;;4960077;28;20208;-78
2022/04/15 06:09:32;;;;;;;13.67;11.30;;;10.90;99.90;;;;;;4953087;28;20218;-78
2022/04/15 06:11:59;;;;;;;11.60;10.17;;;11.10;99.90;;;;;;4934782;29;20201;-78
2022/04/15 06:14:33;;;;;;;10.30;9.23;;;11.00;99.90;;;;;;4949533;28;20209;-78
2022/04/15 06:17:00;;;;;;;11.10;9.23;;;11.00;99.90;;;;;;4946263;28;20557;-78
2022/04/15 06:19:28;;;;;;;10.97;9.83;;;11.00;99.90;;;;;;4951562;28;20606;-78
2022/04/15 06:21:55;;;;;;;11.87;9.77;;;11.00;99.90;;;;;;4946943;28;20597;-76
2022/04/15 06:24:23;;;;;;;11.33;10.13;;;11.00;99.90;;;;;;4949879;28;20241;-77
2022/04/15 06:26:51;;;;;;;12.17;10.07;;;11.10;99.90;;;;;;4937192;29;20206;-77
2022/04/15 06:29:19;;;;;;;13.90;10.13;;;11.10;99.90;;;;;;4944896;28;20225;-77
2022/04/15 06:31:48;;;;;;;10.97;8.87;;;11.00;99.90;;;;;;4946341;28;20214;-77
2022/04/15 06:34:15;;;;;;;10.80;8.80;;;11.00;99.90;;;;;;4931598;29;20191;-77
2022/04/15 06:36:42;;;;;;;12.33;9.93;;;10.90;99.90;;;;;;4935090;29;20194;-77
2022/04/15 06:39:10;;;;;;;10.70;8.60;;;11.00;99.90;;;;;;4947292;28;20311;-77
2022/04/15 06:41:37;;;;;;;10.37;8.87;;;11.10;99.90;;;;;;4937602;29;20199;-77
2022/04/15 06:44:05;;;;;;;9.60;8.40;;;11.10;99.90;;;;;;4914596;29;20230;-77
2022/04/15 06:46:32;;;;;;;10.73;9.50;;;11.20;99.90;;;;;;4930132;29;20210;-78
2022/04/15 06:49:01;;;;;;;9.40;8.47;;;11.00;99.90;;;;;;4946045;28;20696;-77
2022/04/15 06:51:28;;;;;;;9.50;8.27;;;11.10;99.90;;;;;;4946557;28;20202;-79
2022/04/15 06:53:56;;;;;;;9.53;8.43;;;11.00;99.90;;;;;;4946433;28;20574;-77
2022/04/15 06:56:23;;;;;;;8.23;7.43;;;11.00;99.90;;;;;;4930298;29;20221;-77
2022/04/15 06:58:51;;;;;;;8.90;7.63;;;11.10;99.90;;;;;;4933803;28;20226;-77
2022/04/15 07:01:18;;;;;;;8.60;6.83;;;11.20;99.90;;;;;;4945928;29;20202;-77
2022/04/15 07:03:46;;;;;;;6.80;6.03;;;11.10;99.90;;;;;;4930029;29;20229;-77
2022/04/15 07:06:15;;;;;;;6.30;5.70;;;11.10;99.90;;;;;;4946014;28;20612;-77
2022/04/15 07:08:42;;;;;;;7.17;5.60;;;11.30;99.90;;;;;;4934993;29;20225;-77
2022/04/15 07:11:09;;;;;;;6.93;5.60;;;11.30;99.90;;;;;;4945891;28;20238;-77
2022/04/15 07:13:37;;;;;;;5.40;4.90;;;11.30;99.90;;;;;;4930318;29;20199;-77
2022/04/15 07:16:05;;;;;;;5.93;4.83;;;11.20;99.90;;;;;;4946505;28;20203;-77
2022/04/15 07:18:32;;;;;;;5.60;4.70;;;11.10;99.90;;;;;;4944951;28;20230;-78
2022/04/15 07:21:00;;;;;;;4.87;4.07;;;11.10;99.90;;;;;;4946020;28;20214;-77
2022/04/15 07:23:29;;;;;;;4.30;3.97;;;11.30;99.90;;;;;;4929639;29;20218;-77
2022/04/15 07:25:56;;;;;;;5.20;4.10;;;11.30;99.90;;;;;;4945550;28;20213;-77
2022/04/15 07:28:24;;;;;;;5.03;4.33;;;11.50;99.90;;;;;;4944553;28;20239;-77
2022/04/15 07:30:51;;;;;;;6.20;4.27;;;11.50;99.90;;;;;;4945938;28;20202;-77
2022/04/15 07:33:19;;;;;;;5.67;4.30;;;11.40;99.90;;;;;;4933551;29;20542;-77
2022/04/15 07:35:47;;;;;;;4.07;3.63;;;11.50;99.90;;;;;;4966298;28;20206;-77
2022/04/15 07:38:14;;;;;;;4.70;3.50;;;11.40;99.90;;;;;;4944357;29;20234;-77
2022/04/15 07:40:43;;;;;;;6.60;3.97;;;11.40;99.90;;;;;;4931155;29;20207;-78
2022/04/15 07:43:10;;;;;;;6.10;3.65;;;11.40;99.90;;;;;;4915645;29;20198;-78
2022/04/15 07:45:38;;;;;;;4.03;3.30;;;11.50;99.90;;;;;;4942696;29;20290;-77
2022/04/15 07:48:06;;;;;;;4.45;3.75;;;11.50;99.90;;;;;;4935197;29;20233;-77
2022/04/15 07:50:33;;;;;;;6.68;3.78;;;11.70;99.90;;;;;;4949735;28;20210;-77
2022/04/15 07:53:01;;;;;;;4.33;3.47;;;11.90;99.90;;;;;;4932569;29;20683;-77
2022/04/15 07:55:28;;;;;;;7.23;3.80;;;11.70;99.90;;;;;;4947094;29;20209;-77
2022/04/15 07:57:57;;;;;;;4.23;3.10;;;11.90;99.90;;;;;;4932168;29;20291;-77
2022/04/15 08:00:25;;;;;;;3.50;3.20;;;11.90;99.90;;;;;;4948337;29;20210;-77
2022/04/15 08:02:52;;;;;;;5.33;4.20;;;11.80;99.90;;;;;;4949020;28;20673;-77
2022/04/15 08:05:20;;;;;;;4.30;3.90;;;11.70;99.90;;;;;;4931075;29;20214;-77
2022/04/15 08:07:47;;;;;;;5.97;4.17;;;11.60;99.90;;;;;;4940921;29;20210;-77
2022/04/15 08:10:15;;;;;;;4.03;3.63;;;11.20;99.90;;;;;;4932086;29;20229;-77
2022/04/15 08:12:42;;;;;;;4.67;4.20;;;11.20;99.90;;;;;;4932695;29;20229;-77
2022/04/15 08:15:11;;;;;;;4.17;3.77;;;11.20;99.90;;;;;;4948681;28;20202;-77
2022/04/15 08:17:39;;;;;;;5.43;4.30;;;11.20;99.90;;;;;;4948214;29;20213;-78
2022/04/15 08:20:07;;;;;;;7.03;5.20;;;11.10;99.90;;;;;;4949311;28;20234;-77
2022/04/15 08:22:36;;;;;;;5.37;4.83;;;11.20;99.90;;;;;;4952111;28;20212;-77
2022/04/15 08:25:05;;;;;;;6.60;5.30;;;11.10;99.90;;;;;;4943517;28;20218;-77
2022/04/15 08:27:33;;;;;;;5.00;4.60;;;11.00;99.90;;;;;;4953587;29;20209;-77
2022/04/15 08:30:00;;;;;;;5.63;5.13;;;11.20;99.90;;;;;;4957721;28;20241;-77
2022/04/15 08:32:33;;;;;;;6.13;5.17;;;11.20;99.90;;;;;;4948249;28;20209;-77
2022/04/15 08:35:01;;;;;;;6.43;5.83;;;11.20;99.90;;;;;;4947445;28;20214;-76
2022/04/15 08:37:28;;;;;;;6.83;6.10;;;11.20;99.90;;;;;;4935461;29;20225;-77
2022/04/15 08:39:56;;;;;;;7.07;5.83;;;11.10;99.90;;;;;;4952673;28;20230;-77
2022/04/15 08:42:24;;;;;;;6.63;5.97;;;11.20;99.90;;;;;;4931656;29;20210;-76
2022/04/15 08:44:53;;;;;;;7.33;6.17;;;11.20;99.90;;;;;;4949806;28;20223;-76
2022/04/15 08:47:21;;;;;;;8.87;6.90;;;11.20;99.90;;;;;;4932698;29;20573;-77
2022/04/15 08:49:50;;;;;;;7.57;6.80;;;11.10;99.90;;;;;;4932074;29;20233;-76
2022/04/15 08:52:25;;;;;;;7.90;7.10;;;11.30;99.90;;;;;;4934665;29;20215;-76
2022/04/15 08:54:52;;;;;;;6.23;5.60;;;11.40;99.90;;;;;;4964702;28;20212;-76
2022/04/15 08:57:20;;;;;;;7.97;6.97;;;11.50;99.90;;;;;;4945706;29;20202;-76
2022/04/15 08:59:47;;;;;;;7.87;7.07;;;11.50;99.90;;;;;;4952470;28;20303;-77
2022/04/15 09:02:30;;;;;;;9.10;6.77;;;11.30;99.90;;;;;;4966675;28;20221;-76
2022/04/15 09:04:59;;;;;;;11.03;7.27;;;11.50;99.90;;;;;;4949754;28;20226;-77
2022/04/15 09:07:29;;;;;;;7.50;6.70;;;11.60;99.90;;;;;;4947015;28;20198;-76
2022/04/15 09:09:57;;;;;;;8.10;6.80;;;11.50;99.90;;;;;;4930338;29;20342;-78
2022/04/15 09:12:27;;;;;;;7.67;6.87;;;11.60;99.90;;;;;;4949568;29;20206;-77
2022/04/15 09:14:58;;;;;;;7.47;6.30;;;11.50;99.90;;;;;;4950709;28;20214;-77
2022/04/15 09:17:28;;;;;;;9.03;7.03;;;11.40;99.90;;;;;;4942636;29;20566;-77
2022/04/15 09:19:58;;;;;;;8.23;6.40;;;11.40;99.90;;;;;;4930624;29;20234;-77
2022/04/15 09:22:27;;;;;;;8.23;6.33;;;11.30;99.90;;;;;;4934107;29;20199;-76
2022/04/15 09:24:54;;;;;;;6.40;5.80;;;11.50;99.90;;;;;;4950340;28;20584;-75
2022/04/15 09:27:23;;;;;;;7.00;6.17;;;11.60;99.90;;;;;;4933459;29;20211;-76
2022/04/15 09:29:52;;;;;;;8.33;6.67;;;11.50;99.90;;;;;;4953946;28;20700;-77
2022/04/15 09:32:20;;;;;;;9.27;6.00;;;11.50;99.90;;;;;;4949555;28;20207;-76
2022/04/15 09:34:54;;;;;;;6.87;6.20;;;11.50;99.90;;;;;;4934288;29;20210;-76
2022/04/15 09:37:22;;;;;;;7.70;6.37;;;11.50;99.90;;;;;;4935266;29;20646;-77
2022/04/15 09:40:12;;;;;;;6.83;6.13;;;11.60;99.90;;;;;;4930685;28;20222;-78
2022/04/15 09:42:45;;;;;;;7.00;6.30;;;11.60;99.90;;;;;;4936605;29;20218;-77
2022/04/15 09:45:14;;;;;;;6.70;5.87;;;11.60;99.90;;;;;;4942180;29;20213;-77
2022/04/15 09:47:42;;;;;;;7.80;6.77;;;11.50;99.90;;;;;;4948919;28;20216;-77
2022/04/15 09:50:22;;;;;;;7.40;6.63;;;11.40;99.90;;;;;;4945065;28;20226;-76
2022/04/15 09:52:51;;;;;;;7.23;6.30;;;11.50;99.90;;;;;;4932301;29;20707;-77
2022/04/15 09:55:21;;;;;;;6.73;5.97;;;11.50;99.90;;;;;;4944381;28;20206;-77
2022/04/15 09:57:49;;;;;;;6.77;6.13;;;11.60;99.90;;;;;;4936273;29;20198;-77
2022/04/15 10:00:18;;;;;;;6.80;6.03;;;11.80;99.90;;;;;;4956550;28;20227;-77
2022/04/15 10:02:47;;;;;;;7.28;6.57;;;11.80;99.90;;;;;;4949281;29;20211;-77
2022/04/15 10:05:23;;;;;;;7.30;6.13;;;11.70;99.90;;;;;;4949593;28;20218;-77
2022/04/15 10:07:51;;;;;;;6.73;6.03;;;11.60;99.90;;;;;;4948725;29;20209;-77
2022/04/15 10:10:20;;;;;;;7.32;6.40;;;11.60;99.90;;;;;;4934000;29;20206;-77
2022/04/15 10:12:48;;;;;;;6.93;6.25;;;11.20;99.90;;;;;;4949738;28;20555;-76
2022/04/15 10:15:18;;;;;;;8.57;6.67;;;11.30;99.90;;;;;;4948765;28;20210;-78
2022/04/15 10:17:46;;;;;;;6.70;6.00;;;11.40;99.90;;;;;;4941494;29;20202;-76
2022/04/15 10:20:13;;;;;;;6.77;6.03;;;11.60;99.90;;;;;;4949924;28;20222;-76
2022/04/15 10:22:41;;;;;;;6.03;5.30;;;11.60;99.90;;;;;;4950076;29;20221;-77
2022/04/15 10:25:09;;;;;;;7.43;4.80;;;11.50;99.90;;;;;;4949479;29;20221;-77
2022/04/15 10:27:39;;;;;;;6.33;5.43;;;11.70;99.90;;;;;;4949535;28;20214;-77
2022/04/15 10:30:18;;;;;;;5.95;5.13;;;12.00;99.90;;;;;;4930286;29;20223;-77
2022/04/15 10:32:50;;;;;;;5.73;5.10;;;12.00;99.90;;;;;;4930794;29;20200;-77
2022/04/15 10:35:26;;;;;;;6.20;5.50;;;11.90;99.90;;;;;;4935007;29;20199;-77
2022/04/15 10:38:00;;;;;;;6.03;4.60;;;11.90;99.90;;;;;;4940276;29;20202;-77
2022/04/15 10:40:30;;;;;;;6.73;5.10;;;12.10;99.90;;;;;;4949472;29;20565;-78
2022/04/15 10:43:06;;;;;;;5.20;4.70;;;12.20;99.90;;;;;;4933174;29;20210;-78
2022/04/15 10:45:38;;;;;;;6.07;5.22;;;12.20;99.90;;;;;;4932772;29;20230;-78
2022/04/15 10:48:06;;;;;;;5.47;4.97;;;12.10;99.90;;;;;;4948918;29;20209;-77
2022/04/15 10:50:35;;;;;;;6.20;5.60;;;12.10;99.90;;;;;;4953063;28;20202;-79
2022/04/15 10:53:34;;;;;;;5.95;5.32;;;12.20;99.90;;;;;;4947182;28;20720;-76
2022/04/15 10:56:10;;;;;;;4.80;4.20;;;12.00;99.90;;;;;;4939884;29;20205;-76
2022/04/15 11:01:51;;;;;;;5.50;5.00;;;12.20;99.90;;;;;;4963977;28;20218;-76
2022/04/15 11:04:24;;;;;;;5.13;4.65;;;12.30;99.90;;;;;;4946884;29;20229;-76
2022/04/15 11:06:52;;;;;;;5.25;4.75;;;12.40;99.90;;;;;;4934880;29;20222;-77
2022/04/15 11:09:26;;;;;;;4.93;4.43;;;12.60;99.90;;;;;;4922819;28;20234;-77
2022/04/15 11:11:54;;;;;;;5.70;5.13;;;12.30;99.90;;;;;;4947507;29;20202;-77
2022/04/15 11:14:35;;;;;;;6.80;6.05;;;12.50;99.90;;;;;;4951790;28;20221;-77
2022/04/15 11:17:03;;;;;;;7.03;6.28;;;12.50;99.90;;;;;;4953961;28;20202;-76
2022/04/15 11:19:31;;;;;;;7.05;5.90;;;12.40;99.90;;;;;;4951232;28;20734;-76
2022/04/15 11:22:02;;;;;;;8.60;6.75;;;12.60;99.90;;;;;;4936473;29;20581;-76
2022/04/15 11:24:32;;;;;;;6.85;6.15;;;12.50;99.90;;;;;;4952256;29;20201;-76
2022/04/15 11:27:03;;;;;;;5.60;5.10;;;12.60;99.90;;;;;;4953579;28;20218;-76
2022/04/15 11:29:32;;;;;;;7.13;5.32;;;12.30;99.90;;;;;;4950478;28;20230;-76
2022/04/15 11:32:04;;;;;;;6.80;5.85;;;12.50;99.90;;;;;;4951625;29;20202;-76
2022/04/15 11:34:31;;;;;;;12.98;10.68;;;12.30;99.90;;;;;;4937551;29;20685;-76
2022/04/15 11:37:03;;;;;;;17.20;12.57;;;12.50;99.90;;;;;;4932565;29;20199;-76
2022/04/15 11:39:37;;;;;;;12.48;9.70;;;12.60;99.90;;;;;;4955680;28;20221;-76
2022/04/15 11:45:33;;;;;;;9.05;8.02;;;12.50;99.90;;;;;;4938642;28;20226;-76
2022/04/15 11:48:22;;;;;;;7.68;6.88;;;12.70;99.90;;;;;;4954559;28;20209;-76
2022/04/15 11:50:51;;;;;;;6.88;5.65;;;12.60;99.90;;;;;;4933825;29;20205;-76
2022/04/15 11:53:19;;;;;;;6.72;5.90;;;12.70;99.90;;;;;;4937147;29;20209;-76
2022/04/15 11:55:52;;;;;;;6.35;5.75;;;12.70;99.90;;;;;;4951786;29;20595;-76
2022/04/15 11:58:21;;;;;;;7.72;6.60;;;12.40;99.90;;;;;;4959283;28;20225;-76
2022/04/15 12:00:53;;;;;;;6.75;5.90;;;12.50;99.90;;;;;;4936794;29;20205;-76
2022/04/15 12:03:22;;;;;;;6.97;6.10;;;12.50;99.90;;;;;;4937077;29;20201;-75
2022/04/15 12:05:50;;;;;;;5.88;5.00;;;12.70;99.90;;;;;;4936839;29;20241;-75
2022/04/15 12:08:17;;;;;;;5.85;5.22;;;12.70;99.90;;;;;;4934426;29;20229;-76
2022/04/15 12:10:46;;;;;;;6.53;5.30;;;12.80;99.90;;;;;;4936444;29;20201;-76
2022/04/15 12:13:14;;;;;;;5.68;5.15;;;12.90;99.90;;;;;;4951901;29;20202;-75
2022/04/15 12:15:43;;;;;;;6.63;5.65;;;12.90;99.90;;;;;;4935884;29;20191;-76
2022/04/15 12:18:11;;;;;;;6.45;5.15;;;12.90;99.90;;;;;;4938224;28;20210;-77
2022/04/15 12:20:41;;;;;;;6.10;5.57;;;12.60;99.90;;;;;;4935665;29;20215;-76
2022/04/15 12:23:12;;;;;;;6.38;5.78;;;12.70;99.90;;;;;;4949131;28;20202;-76
2022/04/15 12:31:30;;;;;;;6.32;5.72;;;12.90;99.90;;;;;;4936268;29;20202;-76
2022/04/15 12:33:59;;;;;;;6.65;5.22;;;12.90;99.90;;;;;;4951527;29;20206;-75
2022/04/15 12:36:39;;;;;;;5.93;5.38;;;13.10;99.90;;;;;;4948436;28;20206;-75
2022/04/15 12:39:07;;;;;;;6.97;6.35;;;13.20;99.90;;;;;;4950412;28;20719;-75
2022/04/15 12:41:42;;;;;;;6.60;6.00;;;12.90;99.90;;;;;;4935478;29;20198;-75
2022/04/15 12:44:14;;;;;;;6.53;5.93;;;13.00;99.90;;;;;;4936898;29;20186;-75
2022/04/15 12:46:44;;;;;;;6.00;5.47;;;13.00;99.90;;;;;;4951706;28;20218;-75
2022/04/15 12:49:29;;;;;;;6.43;5.82;;;13.10;99.90;;;;;;4934494;29;20222;-76
2022/04/15 12:52:09;;;;;;;6.40;5.80;;;13.30;99.90;;;;;;4932984;29;20668;-76
2022/04/15 12:54:57;;;;;;;7.13;6.43;;;13.40;99.90;;;;;;4951481;29;20225;-75
2022/04/15 12:57:29;;;;;;;8.07;6.65;;;13.30;99.90;;;;;;4934685;29;20202;-76
2022/04/15 12:59:57;;;;;;;7.00;6.10;;;13.50;99.90;;;;;;4951382;28;20717;-75
2022/04/15 13:02:24;;;;;;;7.15;5.82;;;13.50;99.90;;;;;;4935882;29;20199;-76